Flight Track Log - Related Links

Times and Time Zones

All times are in EDT time to prevent confusion due to time zone crossing. See the TGO993 flight status page for this flight to view local times or setup timezone preferences in your user account.

Time Position Orientation Groundspeed Altitude Reporting Facility
EDT Latitude Longitude Course Direction KTS MPH feet Rate Location/Type
Mon 02:57:47 PM 54.4500 -94.2833 202° Southwest 140 161 13,800  Level Winnipeg Center
Mon 02:58:47 PM 54.4167 -94.3167 210° Southwest 130 150 15,000 1,150 Climbing Winnipeg Center
Mon 02:59:47 PM 54.3667 -94.3167 180° South 140 161 16,100 1,200 Climbing Winnipeg Center
Mon 03:00:47 PM 54.3333 -94.3500 210° Southwest 140 161 17,400 1,100 Climbing Winnipeg Center
Mon 03:01:00 PM 54.0454 -94.5866 201° Southwest  Level FlightAware Approximate
Mon 03:01:47 PM 54.3000 -94.3833 210° Southwest 140 161 18,300  Level Winnipeg Center
Mon 03:02:00 PM 53.9929 -94.6215 201° Southwest  Level FlightAware Approximate
Mon 03:02:47 PM 54.2667 -94.4167 210° Southwest 140 161 19,400  Level Winnipeg Center
Mon 03:03:00 PM 53.9406 -94.6566 202° Southwest  Level FlightAware Approximate
Mon 03:03:47 PM 54.2167 -94.4500 201° Southwest 140 161 19,900  Level Winnipeg Center
Mon 03:04:47 PM 54.1667 -94.4667 191° South 180 207 20,000 50 Climbing Winnipeg Center
Mon 03:05:47 PM 54.1167 -94.5000 201° Southwest 200 230 20,000  Level Winnipeg Center
Mon 03:06:47 PM 54.0667 -94.5333 201° Southwest 200 230 20,000  Level Winnipeg Center
Mon 03:07:47 PM 54.0167 -94.6000 218° Southwest 220 253 20,000  Level Winnipeg Center
Mon 03:08:47 PM 53.9500 -94.6333 196° South 220 253 20,000  Level Winnipeg Center
Mon 03:09:47 PM 53.9000 -94.6667 201° Southwest 210 242 20,000  Level Winnipeg Center
Mon 03:10:47 PM 53.8500 -94.7000 201° Southwest 210 242 20,000  Level Winnipeg Center
Mon 03:11:47 PM 53.7833 -94.7500 204° Southwest 210 242 20,000  Level Winnipeg Center
Mon 03:12:47 PM 53.7333 -94.7833 202° Southwest 220 253 20,000  Level Winnipeg Center
Mon 03:13:47 PM 53.7000 -94.8167 211° Southwest 210 242 20,000  Level Winnipeg Center
Mon 03:14:47 PM 53.6500 -94.8500 202° Southwest 210 242 20,000  Level Winnipeg Center
Mon 03:15:47 PM 53.5833 -94.9000 204° Southwest 210 242 20,000  Level Winnipeg Center
Mon 03:16:47 PM 53.5333 -94.9333 202° Southwest 210 242 20,000  Level Winnipeg Center
Mon 03:17:47 PM 53.4833 -94.9667 202° Southwest 200 230 20,000  Level Winnipeg Center
Mon 03:18:47 PM 53.4167 -95.0000 197° South 210 242 20,000  Level Winnipeg Center
Mon 03:19:47 PM 53.3667 -95.0333 202° Southwest 200 230 20,000  Level Winnipeg Center
Mon 03:22:00 PM 53.3037 -95.0785 203° Southwest  Level FlightAware Approximate
Mon 03:29:00 PM 52.9412 -95.3358 203° Southwest  Level FlightAware Approximate
Mon 03:30:00 PM 52.8894 -95.3722 203° Southwest  Level FlightAware Approximate
Mon 03:31:00 PM 52.8376 -95.4086 203° Southwest  Level FlightAware Approximate
Mon 03:32:00 PM 52.7857 -95.4448 203° Southwest  Level FlightAware Approximate
Mon 03:33:00 PM 52.7338 -95.4809 203° Southwest  Level FlightAware Approximate
Mon 03:33:43 PM 52.5833 -95.5667 203° Southwest 220 253 20,000  Level Winnipeg Center
Mon 03:34:00 PM 52.6820 -95.5170 203° Southwest  Level FlightAware Approximate
Mon 03:35:00 PM 52.6301 -95.5530 203° Southwest  Level FlightAware Approximate
Mon 03:35:22 PM 52.5000 -95.6167 200° South 230 265 20,000  Level Winnipeg Center
Mon 03:36:00 PM 52.5782 -95.5889 203° Southwest  Level FlightAware Approximate
Mon 03:36:22 PM 52.4333 -95.6500 197° South 220 253 20,000  Level Winnipeg Center
Mon 03:37:00 PM 52.5263 -95.6247 203° Southwest  Level FlightAware Approximate
Mon 03:37:22 PM 52.3833 -95.7000 211° Southwest 220 253 20,000  Level Winnipeg Center
Mon 03:38:00 PM 52.4744 -95.6604 203° Southwest  Level FlightAware Approximate
Mon 03:38:22 PM 52.3333 -95.7333 202° Southwest 220 253 20,000  Level Winnipeg Center
Mon 03:39:00 PM 52.4224 -95.6960 203° Southwest  Level FlightAware Approximate
Mon 03:39:22 PM 52.2667 -95.7667 197° South 220 253 20,000  Level Winnipeg Center
Mon 03:40:22 PM 52.2167 -95.8167 212° Southwest 220 253 20,000  Level Winnipeg Center
Mon 03:41:22 PM 52.1667 -95.8500 202° Southwest 230 265 20,000  Level Winnipeg Center
Mon 03:42:22 PM 52.1000 -95.8667 189° South 220 253 20,000  Level Winnipeg Center
Mon 03:43:22 PM 52.0500 -95.9333 219° Southwest 220 253 20,000  Level Winnipeg Center
Mon 03:44:22 PM 51.9833 -95.9667 197° South 220 253 20,000  Level Winnipeg Center
Mon 03:45:22 PM 51.9333 -95.9833 192° South 220 253 20,000  Level Winnipeg Center
Mon 03:46:22 PM 51.8833 -96.0500 219° Southwest 220 253 20,000  Level Winnipeg Center
Mon 03:47:22 PM 51.8167 -96.0667 189° South 220 253 20,000  Level Winnipeg Center
Mon 03:48:22 PM 51.7667 -96.1000 202° Southwest 220 253 20,000  Level Winnipeg Center
Mon 03:49:22 PM 51.7000 -96.1333 197° South 220 253 20,000  Level Winnipeg Center
Mon 03:50:22 PM 51.6500 -96.1500 192° South 220 253 20,000  Level Winnipeg Center
Mon 03:51:22 PM 51.6000 -96.2167 220° Southwest 220 253 20,000  Level Winnipeg Center
Mon 03:52:22 PM 51.5333 -96.2333 189° South 220 253 20,000  Level Winnipeg Center
Mon 03:53:22 PM 51.4833 -96.2667 203° Southwest 220 253 20,000  Level Winnipeg Center
Mon 03:54:22 PM 51.4333 -96.3000 203° Southwest 220 253 20,000  Level Winnipeg Center
Mon 03:55:22 PM 51.3667 -96.3500 205° Southwest 220 253 20,000  Level Winnipeg Center
Mon 03:56:22 PM 51.3167 -96.3833 203° Southwest 220 253 20,000  Level Winnipeg Center
Mon 03:57:22 PM 51.2667 -96.4000 192° South 210 242 20,000  Level Winnipeg Center
Mon 03:58:22 PM 51.2000 -96.4500 205° Southwest 210 242 20,000  Level Winnipeg Center
Mon 03:59:22 PM 51.1500 -96.4833 203° Southwest 210 242 20,000  Level Winnipeg Center
Mon 04:00:22 PM 51.0833 -96.5167 197° South 210 242 20,000  Level Winnipeg Center
Mon 04:01:22 PM 51.0333 -96.5333 192° South 210 242 20,000  Level Winnipeg Center
Mon 04:02:22 PM 50.9833 -96.6000 220° Southwest 210 242 20,000 -200 Level Winnipeg Center
Mon 04:03:22 PM 50.9333 -96.6167 192° South 210 242 19,600 -650 Descending Winnipeg Center
Mon 04:04:22 PM 50.8667 -96.6500 198° South 230 265 18,700 -950 Descending Winnipeg Center
Mon 04:05:22 PM 50.8000 -96.7000 205° Southwest 240 276 17,700 -950 Descending Winnipeg Center
Mon 04:06:22 PM 50.7333 -96.7333 198° South 250 288 16,800 -1,000 Descending Winnipeg Center
Mon 04:07:22 PM 50.6667 -96.7833 205° Southwest 250 288 15,700 -1,000 Descending Winnipeg Center
Mon 04:08:22 PM 50.6167 -96.8000 192° South 240 276 14,800 -1,050 Descending Winnipeg Center
Mon 04:09:22 PM 50.5500 -96.8667 212° Southwest 240 276 13,600 -1,160 Descending Winnipeg Center
Mon 04:10:21 PM 50.4833 -96.8833 189° South 240 276 12,500 -1,059 Descending Winnipeg Center
Mon 04:11:21 PM 50.4333 -96.9167 203° Southwest 240 276 11,500 -950 Descending Winnipeg Center
Mon 04:12:21 PM 50.3667 -96.9667 206° Southwest 230 265 10,600 -1,000 Descending Winnipeg Center
Mon 04:13:21 PM 50.3167 -97.0167 213° Southwest 230 265 9,500 -1,050 Descending Winnipeg Center
Mon 04:14:21 PM 50.2500 -97.0667 206° Southwest 230 265 8,500 -950 Descending Winnipeg Center
Mon 04:15:21 PM 50.2000 -97.1000 203° Southwest 230 265 7,600 -850 Descending Winnipeg Center
Mon 04:16:21 PM 50.1500 -97.1167 192° South 220 253 6,800 -950 Descending Winnipeg Center
Mon 04:17:21 PM 50.0833 -97.1667 206° Southwest 220 253 5,700 -1,050 Descending Winnipeg Center
Mon 04:18:21 PM 50.0333 -97.2000 203° Southwest 200 230 4,700 -1,100 Descending Winnipeg Center
Mon 04:19:21 PM 49.9833 -97.2000 180° South 170 196 3,500 -1,350 Descending Winnipeg Center
Mon 04:20:21 PM 49.9500 -97.2333 213° Southwest 130 150 2,000 -1,350 Descending Winnipeg Center
Mon 04:21:21 PM 49.9167 -97.2333 180° South 100 115 800 -1,200 Descending Winnipeg Center

Login

Don't have an account? Register now (free) for customized features, flight alerts, and more!